sensor_id;sensor_type;location;lat;lon;timestamp;P1;durP1;ratioP1;P2;durP2;ratioP2
65896;SDS011;52677;50.898;10.854;2024-01-10T00:00:14;45.35;;;18.80;;
65896;SDS011;52677;50.898;10.854;2024-01-10T00:02:15;53.85;;;18.77;;
65896;SDS011;52677;50.898;10.854;2024-01-10T00:04:15;44.08;;;16.92;;
65896;SDS011;52677;50.898;10.854;2024-01-10T00:06:16;40.80;;;18.45;;
65896;SDS011;52677;50.898;10.854;2024-01-10T00:08:16;46.05;;;18.90;;
65896;SDS011;52677;50.898;10.854;2024-01-10T00:10:17;45.17;;;20.77;;
65896;SDS011;52677;50.898;10.854;2024-01-10T00:12:17;41.83;;;17.70;;
65896;SDS011;52677;50.898;10.854;2024-01-10T00:14:18;47.13;;;19.10;;
65896;SDS011;52677;50.898;10.854;2024-01-10T00:16:18;43.47;;;17.70;;
65896;SDS011;52677;50.898;10.854;2024-01-10T00:18:18;46.97;;;18.23;;
65896;SDS011;52677;50.898;10.854;2024-01-10T00:20:19;46.17;;;19.60;;
65896;SDS011;52677;50.898;10.854;2024-01-10T00:22:19;51.22;;;18.88;;
65896;SDS011;52677;50.898;10.854;2024-01-10T00:24:19;45.42;;;18.55;;
65896;SDS011;52677;50.898;10.854;2024-01-10T00:26:20;42.35;;;17.67;;
65896;SDS011;52677;50.898;10.854;2024-01-10T00:28:20;43.05;;;18.95;;
65896;SDS011;52677;50.898;10.854;2024-01-10T00:30:21;42.13;;;19.35;;
65896;SDS011;52677;50.898;10.854;2024-01-10T00:32:21;40.95;;;17.58;;
65896;SDS011;52677;50.898;10.854;2024-01-10T00:34:21;39.90;;;16.50;;
65896;SDS011;52677;50.898;10.854;2024-01-10T00:36:22;38.72;;;17.42;;
65896;SDS011;52677;50.898;10.854;2024-01-10T00:38:22;36.00;;;17.50;;
65896;SDS011;52677;50.898;10.854;2024-01-10T00:40:22;44.72;;;19.17;;
65896;SDS011;52677;50.898;10.854;2024-01-10T00:42:23;37.35;;;16.75;;
65896;SDS011;52677;50.898;10.854;2024-01-10T00:44:23;46.25;;;20.45;;
65896;SDS011;52677;50.898;10.854;2024-01-10T00:46:23;46.40;;;19.83;;
65896;SDS011;52677;50.898;10.854;2024-01-10T00:48:24;43.22;;;17.45;;
65896;SDS011;52677;50.898;10.854;2024-01-10T00:50:24;44.35;;;17.30;;
65896;SDS011;52677;50.898;10.854;2024-01-10T00:52:25;43.70;;;19.65;;
65896;SDS011;52677;50.898;10.854;2024-01-10T00:54:25;44.28;;;18.33;;
65896;SDS011;52677;50.898;10.854;2024-01-10T00:56:25;41.30;;;16.13;;
65896;SDS011;52677;50.898;10.854;2024-01-10T00:58:26;42.20;;;17.45;;
65896;SDS011;52677;50.898;10.854;2024-01-10T01:00:26;38.33;;;16.63;;
65896;SDS011;52677;50.898;10.854;2024-01-10T01:02:27;36.65;;;17.85;;
65896;SDS011;52677;50.898;10.854;2024-01-10T01:04:27;43.08;;;16.27;;
65896;SDS011;52677;50.898;10.854;2024-01-10T01:06:27;43.05;;;17.92;;
65896;SDS011;52677;50.898;10.854;2024-01-10T01:08:28;43.75;;;15.32;;
65896;SDS011;52677;50.898;10.854;2024-01-10T01:10:28;34.38;;;16.15;;
65896;SDS011;52677;50.898;10.854;2024-01-10T01:12:28;38.63;;;16.40;;
65896;SDS011;52677;50.898;10.854;2024-01-10T01:14:29;35.80;;;15.75;;
65896;SDS011;52677;50.898;10.854;2024-01-10T01:16:29;43.38;;;16.60;;
65896;SDS011;52677;50.898;10.854;2024-01-10T01:18:29;37.58;;;17.52;;
65896;SDS011;52677;50.898;10.854;2024-01-10T01:20:30;35.28;;;17.00;;
65896;SDS011;52677;50.898;10.854;2024-01-10T01:22:30;39.03;;;15.27;;
65896;SDS011;52677;50.898;10.854;2024-01-10T01:24:31;36.03;;;15.27;;
65896;SDS011;52677;50.898;10.854;2024-01-10T01:26:32;33.45;;;14.57;;
65896;SDS011;52677;50.898;10.854;2024-01-10T01:28:32;39.25;;;15.63;;
65896;SDS011;52677;50.898;10.854;2024-01-10T01:30:32;45.55;;;17.10;;
65896;SDS011;52677;50.898;10.854;2024-01-10T01:32:33;41.15;;;16.70;;
65896;SDS011;52677;50.898;10.854;2024-01-10T01:34:33;34.35;;;14.63;;
65896;SDS011;52677;50.898;10.854;2024-01-10T01:36:33;41.70;;;17.63;;
65896;SDS011;52677;50.898;10.854;2024-01-10T01:38:34;47.80;;;15.93;;
65896;SDS011;52677;50.898;10.854;2024-01-10T01:40:35;39.70;;;16.37;;
65896;SDS011;52677;50.898;10.854;2024-01-10T01:42:35;45.45;;;16.08;;
65896;SDS011;52677;50.898;10.854;2024-01-10T01:44:36;33.55;;;15.40;;
65896;SDS011;52677;50.898;10.854;2024-01-10T01:46:36;41.42;;;16.55;;
65896;SDS011;52677;50.898;10.854;2024-01-10T01:48:37;48.97;;;18.45;;
65896;SDS011;52677;50.898;10.854;2024-01-10T01:50:37;33.05;;;16.00;;
65896;SDS011;52677;50.898;10.854;2024-01-10T01:52:38;47.17;;;19.38;;
65896;SDS011;52677;50.898;10.854;2024-01-10T01:54:38;42.65;;;19.10;;
65896;SDS011;52677;50.898;10.854;2024-01-10T01:56:40;52.70;;;18.23;;
65896;SDS011;52677;50.898;10.854;2024-01-10T02:00:43;47.63;;;16.55;;
65896;SDS011;52677;50.898;10.854;2024-01-10T02:02:43;39.75;;;16.35;;
65896;SDS011;52677;50.898;10.854;2024-01-10T02:04:45;40.42;;;16.63;;
65896;SDS011;52677;50.898;10.854;2024-01-10T02:08:46;38.15;;;14.40;;
65896;SDS011;52677;50.898;10.854;2024-01-10T02:10:47;44.95;;;15.48;;
65896;SDS011;52677;50.898;10.854;2024-01-10T02:12:47;43.10;;;18.42;;
65896;SDS011;52677;50.898;10.854;2024-01-10T02:14:48;35.85;;;16.10;;
65896;SDS011;52677;50.898;10.854;2024-01-10T02:16:48;39.50;;;15.02;;
65896;SDS011;52677;50.898;10.854;2024-01-10T02:18:49;41.58;;;15.95;;
65896;SDS011;52677;50.898;10.854;2024-01-10T02:20:50;44.10;;;18.65;;
65896;SDS011;52677;50.898;10.854;2024-01-10T02:22:51;52.67;;;17.38;;
65896;SDS011;52677;50.898;10.854;2024-01-10T02:24:53;46.75;;;18.67;;
65896;SDS011;52677;50.898;10.854;2024-01-10T02:28:55;48.72;;;16.02;;
65896;SDS011;52677;50.898;10.854;2024-01-10T02:30:55;39.67;;;16.45;;
65896;SDS011;52677;50.898;10.854;2024-01-10T02:32:57;32.72;;;15.80;;
65896;SDS011;52677;50.898;10.854;2024-01-10T02:34:57;37.67;;;15.52;;
65896;SDS011;52677;50.898;10.854;2024-01-10T02:36:58;35.92;;;16.10;;
65896;SDS011;52677;50.898;10.854;2024-01-10T02:38:58;36.13;;;15.05;;
65896;SDS011;52677;50.898;10.854;2024-01-10T02:40:58;35.72;;;16.92;;
65896;SDS011;52677;50.898;10.854;2024-01-10T02:43:00;51.03;;;19.63;;
65896;SDS011;52677;50.898;10.854;2024-01-10T02:45:00;44.80;;;16.77;;
65896;SDS011;52677;50.898;10.854;2024-01-10T02:47:01;42.28;;;18.55;;
65896;SDS011;52677;50.898;10.854;2024-01-10T02:49:01;37.28;;;17.50;;
65896;SDS011;52677;50.898;10.854;2024-01-10T02:51:02;43.70;;;20.15;;
65896;SDS011;52677;50.898;10.854;2024-01-10T02:53:02;49.83;;;19.02;;
65896;SDS011;52677;50.898;10.854;2024-01-10T02:55:03;48.53;;;16.88;;
65896;SDS011;52677;50.898;10.854;2024-01-10T02:57:03;48.00;;;17.73;;
65896;SDS011;52677;50.898;10.854;2024-01-10T02:59:04;45.90;;;18.08;;
65896;SDS011;52677;50.898;10.854;2024-01-10T03:01:04;44.53;;;17.70;;
65896;SDS011;52677;50.898;10.854;2024-01-10T03:03:04;41.70;;;15.23;;
65896;SDS011;52677;50.898;10.854;2024-01-10T03:05:05;41.85;;;17.02;;
65896;SDS011;52677;50.898;10.854;2024-01-10T03:07:05;39.05;;;16.80;;
65896;SDS011;52677;50.898;10.854;2024-01-10T03:09:06;42.08;;;14.65;;
65896;SDS011;52677;50.898;10.854;2024-01-10T03:11:06;31.30;;;13.95;;
65896;SDS011;52677;50.898;10.854;2024-01-10T03:13:06;37.00;;;15.07;;
65896;SDS011;52677;50.898;10.854;2024-01-10T03:15:07;32.38;;;14.18;;
65896;SDS011;52677;50.898;10.854;2024-01-10T03:17:07;46.15;;;16.65;;
65896;SDS011;52677;50.898;10.854;2024-01-10T03:19:07;33.97;;;16.23;;
65896;SDS011;52677;50.898;10.854;2024-01-10T03:21:08;44.28;;;15.68;;
65896;SDS011;52677;50.898;10.854;2024-01-10T03:23:08;33.10;;;13.40;;
65896;SDS011;52677;50.898;10.854;2024-01-10T03:25:08;39.10;;;14.98;;
65896;SDS011;52677;50.898;10.854;2024-01-10T03:27:09;37.83;;;14.95;;
65896;SDS011;52677;50.898;10.854;2024-01-10T03:29:09;44.58;;;15.98;;
65896;SDS011;52677;50.898;10.854;2024-01-10T03:31:10;35.30;;;13.85;;
65896;SDS011;52677;50.898;10.854;2024-01-10T03:33:11;35.70;;;14.60;;
65896;SDS011;52677;50.898;10.854;2024-01-10T03:35:11;31.20;;;15.10;;
65896;SDS011;52677;50.898;10.854;2024-01-10T03:37:11;38.97;;;16.30;;
65896;SDS011;52677;50.898;10.854;2024-01-10T03:39:12;41.08;;;16.83;;
65896;SDS011;52677;50.898;10.854;2024-01-10T03:41:13;32.75;;;13.48;;
65896;SDS011;52677;50.898;10.854;2024-01-10T03:43:17;29.80;;;14.00;;
65896;SDS011;52677;50.898;10.854;2024-01-10T03:45:18;40.03;;;15.43;;
65896;SDS011;52677;50.898;10.854;2024-01-10T03:47:20;30.35;;;13.63;;
65896;SDS011;52677;50.898;10.854;2024-01-10T03:49:20;36.40;;;14.73;;
65896;SDS011;52677;50.898;10.854;2024-01-10T03:51:21;36.42;;;15.63;;
65896;SDS011;52677;50.898;10.854;2024-01-10T03:53:21;33.33;;;14.10;;
65896;SDS011;52677;50.898;10.854;2024-01-10T03:55:21;37.53;;;14.40;;
65896;SDS011;52677;50.898;10.854;2024-01-10T03:57:22;37.17;;;15.27;;
65896;SDS011;52677;50.898;10.854;2024-01-10T03:59:22;36.38;;;14.30;;
65896;SDS011;52677;50.898;10.854;2024-01-10T04:01:22;29.02;;;14.35;;
65896;SDS011;52677;50.898;10.854;2024-01-10T04:03:25;33.90;;;14.23;;
65896;SDS011;52677;50.898;10.854;2024-01-10T04:05:26;38.90;;;15.63;;
65896;SDS011;52677;50.898;10.854;2024-01-10T04:07:27;37.80;;;17.50;;
65896;SDS011;52677;50.898;10.854;2024-01-10T04:09:27;45.35;;;16.35;;
65896;SDS011;52677;50.898;10.854;2024-01-10T04:11:27;39.60;;;17.20;;
65896;SDS011;52677;50.898;10.854;2024-01-10T04:13:28;42.63;;;15.25;;
65896;SDS011;52677;50.898;10.854;2024-01-10T04:15:28;39.47;;;15.50;;
65896;SDS011;52677;50.898;10.854;2024-01-10T04:17:28;41.97;;;15.32;;
65896;SDS011;52677;50.898;10.854;2024-01-10T04:19:28;34.65;;;14.82;;
65896;SDS011;52677;50.898;10.854;2024-01-10T04:21:29;39.05;;;14.63;;
65896;SDS011;52677;50.898;10.854;2024-01-10T04:23:29;34.25;;;14.45;;
65896;SDS011;52677;50.898;10.854;2024-01-10T04:25:30;31.77;;;14.30;;
65896;SDS011;52677;50.898;10.854;2024-01-10T04:27:31;36.53;;;15.50;;
65896;SDS011;52677;50.898;10.854;2024-01-10T04:29:31;39.88;;;15.52;;
65896;SDS011;52677;50.898;10.854;2024-01-10T04:31:31;37.28;;;15.35;;
65896;SDS011;52677;50.898;10.854;2024-01-10T04:33:32;38.88;;;13.80;;
65896;SDS011;52677;50.898;10.854;2024-01-10T04:35:32;36.15;;;14.77;;
65896;SDS011;52677;50.898;10.854;2024-01-10T04:37:32;35.28;;;16.23;;
65896;SDS011;52677;50.898;10.854;2024-01-10T04:39:36;35.60;;;13.98;;
65896;SDS011;52677;50.898;10.854;2024-01-10T04:41:37;38.55;;;15.90;;
65896;SDS011;52677;50.898;10.854;2024-01-10T04:43:39;42.17;;;16.33;;
65896;SDS011;52677;50.898;10.854;2024-01-10T04:45:40;35.47;;;14.80;;
65896;SDS011;52677;50.898;10.854;2024-01-10T04:47:40;42.70;;;14.90;;
65896;SDS011;52677;50.898;10.854;2024-01-10T04:49:41;33.78;;;15.18;;
65896;SDS011;52677;50.898;10.854;2024-01-10T04:51:41;38.35;;;13.88;;
65896;SDS011;52677;50.898;10.854;2024-01-10T04:53:41;28.33;;;13.77;;
65896;SDS011;52677;50.898;10.854;2024-01-10T04:55:42;33.55;;;15.13;;
65896;SDS011;52677;50.898;10.854;2024-01-10T04:57:42;39.92;;;16.30;;
65896;SDS011;52677;50.898;10.854;2024-01-10T04:59:42;32.70;;;13.85;;
65896;SDS011;52677;50.898;10.854;2024-01-10T05:01:43;32.97;;;15.43;;
65896;SDS011;52677;50.898;10.854;2024-01-10T05:03:43;38.47;;;15.93;;
65896;SDS011;52677;50.898;10.854;2024-01-10T05:05:43;34.08;;;14.30;;
65896;SDS011;52677;50.898;10.854;2024-01-10T05:07:44;35.22;;;14.70;;
65896;SDS011;52677;50.898;10.854;2024-01-10T05:09:44;36.90;;;15.88;;
65896;SDS011;52677;50.898;10.854;2024-01-10T05:11:44;36.42;;;14.82;;
65896;SDS011;52677;50.898;10.854;2024-01-10T05:13:51;40.38;;;13.95;;
65896;SDS011;52677;50.898;10.854;2024-01-10T05:15:51;37.70;;;14.00;;
65896;SDS011;52677;50.898;10.854;2024-01-10T05:17:52;34.33;;;16.35;;
65896;SDS011;52677;50.898;10.854;2024-01-10T05:19:52;37.67;;;15.45;;
65896;SDS011;52677;50.898;10.854;2024-01-10T05:21:53;38.00;;;15.50;;
65896;SDS011;52677;50.898;10.854;2024-01-10T05:23:54;45.53;;;16.15;;
65896;SDS011;52677;50.898;10.854;2024-01-10T05:25:55;44.78;;;17.23;;
65896;SDS011;52677;50.898;10.854;2024-01-10T05:27:55;44.88;;;17.95;;
65896;SDS011;52677;50.898;10.854;2024-01-10T05:29:56;35.00;;;14.98;;
65896;SDS011;52677;50.898;10.854;2024-01-10T05:31:56;36.42;;;14.77;;
65896;SDS011;52677;50.898;10.854;2024-01-10T05:33:56;42.75;;;16.95;;
65896;SDS011;52677;50.898;10.854;2024-01-10T05:35:56;38.95;;;16.45;;
65896;SDS011;52677;50.898;10.854;2024-01-10T05:37:58;45.47;;;19.13;;
65896;SDS011;52677;50.898;10.854;2024-01-10T05:39:58;39.08;;;17.02;;
65896;SDS011;52677;50.898;10.854;2024-01-10T05:41:58;34.83;;;15.95;;
65896;SDS011;52677;50.898;10.854;2024-01-10T05:43:59;36.67;;;15.65;;
65896;SDS011;52677;50.898;10.854;2024-01-10T05:45:59;44.38;;;17.25;;
65896;SDS011;52677;50.898;10.854;2024-01-10T05:47:59;40.28;;;17.00;;
65896;SDS011;52677;50.898;10.854;2024-01-10T05:50:00;42.70;;;16.45;;
65896;SDS011;52677;50.898;10.854;2024-01-10T05:52:00;40.17;;;14.90;;
65896;SDS011;52677;50.898;10.854;2024-01-10T05:54:01;36.67;;;16.58;;
65896;SDS011;52677;50.898;10.854;2024-01-10T05:56:01;39.15;;;17.30;;
65896;SDS011;52677;50.898;10.854;2024-01-10T05:58:02;32.92;;;15.48;;
65896;SDS011;52677;50.898;10.854;2024-01-10T06:00:03;41.70;;;15.63;;
65896;SDS011;52677;50.898;10.854;2024-01-10T06:04:05;30.40;;;13.43;;
65896;SDS011;52677;50.898;10.854;2024-01-10T06:06:05;32.65;;;14.07;;
65896;SDS011;52677;50.898;10.854;2024-01-10T06:08:06;36.65;;;15.32;;
65896;SDS011;52677;50.898;10.854;2024-01-10T06:10:06;42.53;;;14.73;;
65896;SDS011;52677;50.898;10.854;2024-01-10T06:12:07;35.55;;;14.05;;
65896;SDS011;52677;50.898;10.854;2024-01-10T06:14:08;37.38;;;15.55;;
65896;SDS011;52677;50.898;10.854;2024-01-10T06:16:08;40.00;;;14.63;;
65896;SDS011;52677;50.898;10.854;2024-01-10T06:18:09;38.97;;;16.58;;
65896;SDS011;52677;50.898;10.854;2024-01-10T06:20:09;39.70;;;16.42;;
65896;SDS011;52677;50.898;10.854;2024-01-10T06:22:10;41.97;;;15.40;;
65896;SDS011;52677;50.898;10.854;2024-01-10T06:24:11;34.60;;;15.60;;
65896;SDS011;52677;50.898;10.854;2024-01-10T06:26:11;42.30;;;15.52;;
65896;SDS011;52677;50.898;10.854;2024-01-10T06:28:12;47.42;;;17.50;;
65896;SDS011;52677;50.898;10.854;2024-01-10T06:30:12;39.80;;;16.25;;
65896;SDS011;52677;50.898;10.854;2024-01-10T06:32:12;49.90;;;18.60;;
65896;SDS011;52677;50.898;10.854;2024-01-10T06:34:14;40.70;;;16.67;;
65896;SDS011;52677;50.898;10.854;2024-01-10T06:36:14;37.78;;;15.85;;
65896;SDS011;52677;50.898;10.854;2024-01-10T06:38:15;37.15;;;15.38;;
65896;SDS011;52677;50.898;10.854;2024-01-10T06:40:16;36.70;;;16.60;;
65896;SDS011;52677;50.898;10.854;2024-01-10T06:42:17;34.03;;;15.93;;
65896;SDS011;52677;50.898;10.854;2024-01-10T06:44:17;38.72;;;15.63;;
65896;SDS011;52677;50.898;10.854;2024-01-10T06:46:17;42.92;;;17.08;;
65896;SDS011;52677;50.898;10.854;2024-01-10T06:48:18;43.67;;;17.02;;
65896;SDS011;52677;50.898;10.854;2024-01-10T06:50:19;32.05;;;15.23;;
65896;SDS011;52677;50.898;10.854;2024-01-10T06:52:20;40.08;;;14.48;;
65896;SDS011;52677;50.898;10.854;2024-01-10T06:54:20;33.05;;;14.40;;
65896;SDS011;52677;50.898;10.854;2024-01-10T06:56:21;40.72;;;15.00;;
65896;SDS011;52677;50.898;10.854;2024-01-10T06:58:21;36.47;;;14.75;;
65896;SDS011;52677;50.898;10.854;2024-01-10T07:00:21;34.65;;;14.63;;
65896;SDS011;52677;50.898;10.854;2024-01-10T07:02:22;38.15;;;16.23;;
65896;SDS011;52677;50.898;10.854;2024-01-10T07:04:23;32.13;;;13.52;;
65896;SDS011;52677;50.898;10.854;2024-01-10T07:06:23;40.17;;;16.52;;
65896;SDS011;52677;50.898;10.854;2024-01-10T07:08:25;27.60;;;11.82;;
65896;SDS011;52677;50.898;10.854;2024-01-10T07:10:25;33.40;;;15.27;;
65896;SDS011;52677;50.898;10.854;2024-01-10T07:12:27;34.08;;;13.60;;
65896;SDS011;52677;50.898;10.854;2024-01-10T07:14:28;44.22;;;16.73;;
65896;SDS011;52677;50.898;10.854;2024-01-10T07:16:28;41.42;;;17.55;;
65896;SDS011;52677;50.898;10.854;2024-01-10T07:18:28;33.13;;;14.85;;
65896;SDS011;52677;50.898;10.854;2024-01-10T07:20:30;52.70;;;17.98;;
65896;SDS011;52677;50.898;10.854;2024-01-10T07:22:30;37.70;;;17.42;;
65896;SDS011;52677;50.898;10.854;2024-01-10T07:24:31;35.13;;;17.20;;
65896;SDS011;52677;50.898;10.854;2024-01-10T07:26:31;44.13;;;17.38;;
65896;SDS011;52677;50.898;10.854;2024-01-10T07:28:31;50.00;;;16.92;;
65896;SDS011;52677;50.898;10.854;2024-01-10T07:30:32;35.20;;;17.08;;
65896;SDS011;52677;50.898;10.854;2024-01-10T07:32:33;39.90;;;16.42;;
65896;SDS011;52677;50.898;10.854;2024-01-10T07:34:33;37.30;;;15.77;;
65896;SDS011;52677;50.898;10.854;2024-01-10T07:36:33;40.83;;;14.63;;
65896;SDS011;52677;50.898;10.854;2024-01-10T07:38:42;34.05;;;15.10;;
65896;SDS011;52677;50.898;10.854;2024-01-10T07:40:42;31.05;;;15.55;;
65896;SDS011;52677;50.898;10.854;2024-01-10T07:42:42;39.83;;;17.30;;
65896;SDS011;52677;50.898;10.854;2024-01-10T07:44:43;36.15;;;16.52;;
65896;SDS011;52677;50.898;10.854;2024-01-10T07:46:43;45.30;;;17.48;;
65896;SDS011;52677;50.898;10.854;2024-01-10T07:48:43;38.08;;;16.85;;
65896;SDS011;52677;50.898;10.854;2024-01-10T07:50:44;43.50;;;16.83;;
65896;SDS011;52677;50.898;10.854;2024-01-10T07:52:45;40.70;;;16.33;;
65896;SDS011;52677;50.898;10.854;2024-01-10T07:54:46;41.17;;;18.53;;
65896;SDS011;52677;50.898;10.854;2024-01-10T07:56:46;45.95;;;17.02;;
65896;SDS011;52677;50.898;10.854;2024-01-10T07:58:46;39.30;;;17.65;;
65896;SDS011;52677;50.898;10.854;2024-01-10T08:00:48;43.30;;;17.42;;
65896;SDS011;52677;50.898;10.854;2024-01-10T08:02:48;47.63;;;19.73;;
65896;SDS011;52677;50.898;10.854;2024-01-10T08:04:50;45.58;;;17.45;;
65896;SDS011;52677;50.898;10.854;2024-01-10T08:06:51;47.70;;;18.92;;
65896;SDS011;52677;50.898;10.854;2024-01-10T08:08:52;36.33;;;16.63;;
65896;SDS011;52677;50.898;10.854;2024-01-10T08:10:52;49.55;;;17.02;;
65896;SDS011;52677;50.898;10.854;2024-01-10T08:12:53;37.30;;;15.85;;
65896;SDS011;52677;50.898;10.854;2024-01-10T08:14:53;40.63;;;15.07;;
65896;SDS011;52677;50.898;10.854;2024-01-10T08:16:53;39.03;;;15.95;;
65896;SDS011;52677;50.898;10.854;2024-01-10T08:18:54;34.90;;;16.55;;
65896;SDS011;52677;50.898;10.854;2024-01-10T08:20:55;37.85;;;18.02;;
65896;SDS011;52677;50.898;10.854;2024-01-10T08:22:55;36.40;;;16.65;;
65896;SDS011;52677;50.898;10.854;2024-01-10T08:24:55;40.40;;;15.38;;
65896;SDS011;52677;50.898;10.854;2024-01-10T08:26:56;44.28;;;18.50;;
65896;SDS011;52677;50.898;10.854;2024-01-10T08:28:56;35.75;;;15.13;;
65896;SDS011;52677;50.898;10.854;2024-01-10T08:30:57;35.00;;;13.57;;
65896;SDS011;52677;50.898;10.854;2024-01-10T08:32:58;43.85;;;16.13;;
65896;SDS011;52677;50.898;10.854;2024-01-10T08:34:59;46.30;;;18.00;;
65896;SDS011;52677;50.898;10.854;2024-01-10T08:37:00;45.63;;;18.52;;
65896;SDS011;52677;50.898;10.854;2024-01-10T08:39:00;52.30;;;20.85;;
65896;SDS011;52677;50.898;10.854;2024-01-10T08:41:01;48.65;;;19.35;;
65896;SDS011;52677;50.898;10.854;2024-01-10T08:43:01;45.38;;;16.65;;
65896;SDS011;52677;50.898;10.854;2024-01-10T08:45:02;53.38;;;19.27;;
65896;SDS011;52677;50.898;10.854;2024-01-10T08:47:02;48.95;;;19.92;;
65896;SDS011;52677;50.898;10.854;2024-01-10T08:49:03;62.28;;;19.67;;
65896;SDS011;52677;50.898;10.854;2024-01-10T08:51:03;50.05;;;19.65;;
65896;SDS011;52677;50.898;10.854;2024-01-10T08:53:04;45.47;;;17.20;;
65896;SDS011;52677;50.898;10.854;2024-01-10T08:55:05;40.10;;;17.92;;
65896;SDS011;52677;50.898;10.854;2024-01-10T08:57:06;37.90;;;17.75;;
65896;SDS011;52677;50.898;10.854;2024-01-10T08:59:06;48.97;;;19.30;;
65896;SDS011;52677;50.898;10.854;2024-01-10T09:01:07;52.38;;;18.80;;
65896;SDS011;52677;50.898;10.854;2024-01-10T09:03:08;43.22;;;17.98;;
65896;SDS011;52677;50.898;10.854;2024-01-10T09:05:09;50.10;;;18.83;;
65896;SDS011;52677;50.898;10.854;2024-01-10T09:07:10;47.33;;;17.05;;
65896;SDS011;52677;50.898;10.854;2024-01-10T09:09:10;52.33;;;18.50;;
65896;SDS011;52677;50.898;10.854;2024-01-10T09:11:10;49.60;;;18.70;;
65896;SDS011;52677;50.898;10.854;2024-01-10T09:13:11;53.47;;;19.98;;
65896;SDS011;52677;50.898;10.854;2024-01-10T09:15:12;54.03;;;17.70;;
65896;SDS011;52677;50.898;10.854;2024-01-10T09:17:14;50.50;;;19.13;;
65896;SDS011;52677;50.898;10.854;2024-01-10T09:19:14;54.50;;;21.65;;
65896;SDS011;52677;50.898;10.854;2024-01-10T09:21:14;46.53;;;18.67;;
65896;SDS011;52677;50.898;10.854;2024-01-10T09:23:15;41.90;;;17.83;;
65896;SDS011;52677;50.898;10.854;2024-01-10T09:25:15;50.78;;;18.70;;
65896;SDS011;52677;50.898;10.854;2024-01-10T09:27:16;44.88;;;20.48;;
65896;SDS011;52677;50.898;10.854;2024-01-10T09:29:16;50.92;;;19.90;;
65896;SDS011;52677;50.898;10.854;2024-01-10T09:31:16;51.45;;;19.60;;
65896;SDS011;52677;50.898;10.854;2024-01-10T09:33:17;49.50;;;21.48;;
65896;SDS011;52677;50.898;10.854;2024-01-10T09:35:17;45.75;;;18.17;;
65896;SDS011;52677;50.898;10.854;2024-01-10T09:37:17;51.63;;;18.80;;
65896;SDS011;52677;50.898;10.854;2024-01-10T09:39:18;48.17;;;19.40;;
65896;SDS011;52677;50.898;10.854;2024-01-10T09:41:18;51.85;;;19.23;;
65896;SDS011;52677;50.898;10.854;2024-01-10T09:43:18;51.70;;;20.85;;
65896;SDS011;52677;50.898;10.854;2024-01-10T09:45:19;47.13;;;19.38;;
65896;SDS011;52677;50.898;10.854;2024-01-10T09:47:21;50.90;;;21.17;;
65896;SDS011;52677;50.898;10.854;2024-01-10T09:49:22;49.47;;;20.30;;
65896;SDS011;52677;50.898;10.854;2024-01-10T09:51:22;51.97;;;20.23;;
65896;SDS011;52677;50.898;10.854;2024-01-10T09:53:23;58.15;;;22.45;;
65896;SDS011;52677;50.898;10.854;2024-01-10T09:55:24;58.33;;;21.10;;
65896;SDS011;52677;50.898;10.854;2024-01-10T09:57:28;51.45;;;21.50;;
65896;SDS011;52677;50.898;10.854;2024-01-10T09:59:28;48.33;;;19.33;;
65896;SDS011;52677;50.898;10.854;2024-01-10T10:01:28;52.10;;;20.52;;
65896;SDS011;52677;50.898;10.854;2024-01-10T10:03:29;56.25;;;20.60;;
65896;SDS011;52677;50.898;10.854;2024-01-10T10:05:29;47.50;;;19.42;;
65896;SDS011;52677;50.898;10.854;2024-01-10T10:07:29;54.28;;;23.42;;
65896;SDS011;52677;50.898;10.854;2024-01-10T10:09:30;53.22;;;22.02;;
65896;SDS011;52677;50.898;10.854;2024-01-10T10:11:31;50.92;;;22.17;;
65896;SDS011;52677;50.898;10.854;2024-01-10T10:13:31;43.63;;;19.80;;
65896;SDS011;52677;50.898;10.854;2024-01-10T10:15:32;47.78;;;22.13;;
65896;SDS011;52677;50.898;10.854;2024-01-10T10:17:32;56.40;;;22.23;;
65896;SDS011;52677;50.898;10.854;2024-01-10T10:19:32;55.88;;;23.48;;
65896;SDS011;52677;50.898;10.854;2024-01-10T10:21:34;58.10;;;21.30;;
65896;SDS011;52677;50.898;10.854;2024-01-10T10:23:34;52.17;;;22.48;;
65896;SDS011;52677;50.898;10.854;2024-01-10T10:25:36;51.60;;;22.10;;
65896;SDS011;52677;50.898;10.854;2024-01-10T10:27:42;53.33;;;21.23;;
65896;SDS011;52677;50.898;10.854;2024-01-10T10:29:42;48.97;;;20.92;;
65896;SDS011;52677;50.898;10.854;2024-01-10T10:31:42;56.15;;;22.83;;
65896;SDS011;52677;50.898;10.854;2024-01-10T10:33:51;57.35;;;21.05;;
65896;SDS011;52677;50.898;10.854;2024-01-10T10:35:51;45.30;;;19.25;;
65896;SDS011;52677;50.898;10.854;2024-01-10T10:37:52;53.78;;;19.40;;
65896;SDS011;52677;50.898;10.854;2024-01-10T10:39:54;57.67;;;21.13;;
65896;SDS011;52677;50.898;10.854;2024-01-10T10:41:54;47.78;;;21.17;;
65896;SDS011;52677;50.898;10.854;2024-01-10T10:43:58;54.05;;;21.17;;
65896;SDS011;52677;50.898;10.854;2024-01-10T10:45:58;61.22;;;22.02;;
65896;SDS011;52677;50.898;10.854;2024-01-10T10:48:00;62.97;;;21.63;;
65896;SDS011;52677;50.898;10.854;2024-01-10T10:50:01;54.37;;;22.30;;
65896;SDS011;52677;50.898;10.854;2024-01-10T10:52:03;54.40;;;20.35;;
65896;SDS011;52677;50.898;10.854;2024-01-10T10:54:05;48.83;;;20.73;;
65896;SDS011;52677;50.898;10.854;2024-01-10T10:58:08;48.42;;;19.58;;
65896;SDS011;52677;50.898;10.854;2024-01-10T11:00:09;48.80;;;21.37;;
65896;SDS011;52677;50.898;10.854;2024-01-10T11:02:16;55.58;;;23.35;;
65896;SDS011;52677;50.898;10.854;2024-01-10T11:04:23;49.28;;;20.73;;
65896;SDS011;52677;50.898;10.854;2024-01-10T11:06:24;56.35;;;24.98;;
65896;SDS011;52677;50.898;10.854;2024-01-10T11:08:24;60.13;;;23.58;;
65896;SDS011;52677;50.898;10.854;2024-01-10T11:10:30;53.35;;;23.52;;
65896;SDS011;52677;50.898;10.854;2024-01-10T11:24:21;46.97;;;19.63;;
65896;SDS011;52677;50.898;10.854;2024-01-10T11:26:22;44.50;;;20.50;;
65896;SDS011;52677;50.898;10.854;2024-01-10T11:28:24;59.13;;;22.30;;
65896;SDS011;52677;50.898;10.854;2024-01-10T11:32:31;44.78;;;18.25;;
65896;SDS011;52677;50.898;10.854;2024-01-10T11:34:33;52.10;;;20.20;;
65896;SDS011;52677;50.898;10.854;2024-01-10T11:36:34;49.85;;;21.20;;
65896;SDS011;52677;50.898;10.854;2024-01-10T11:40:47;46.45;;;20.85;;
65896;SDS011;52677;50.898;10.854;2024-01-10T11:42:48;47.75;;;20.48;;
65896;SDS011;52677;50.898;10.854;2024-01-10T11:44:51;53.60;;;20.63;;
65896;SDS011;52677;50.898;10.854;2024-01-10T11:46:52;47.08;;;19.23;;
65896;SDS011;52677;50.898;10.854;2024-01-10T11:48:55;52.20;;;21.67;;
65896;SDS011;52677;50.898;10.854;2024-01-10T11:50:57;56.93;;;21.50;;
65896;SDS011;52677;50.898;10.854;2024-01-10T11:52:58;50.92;;;21.13;;
65896;SDS011;52677;50.898;10.854;2024-01-10T11:54:59;40.40;;;19.38;;
65896;SDS011;52677;50.898;10.854;2024-01-10T11:57:00;48.97;;;20.08;;
65896;SDS011;52677;50.898;10.854;2024-01-10T11:59:01;56.72;;;23.05;;
65896;SDS011;52677;50.898;10.854;2024-01-10T12:01:06;47.45;;;18.77;;